createdAt,value
2023-03-22T00:00:15.159Z,99702.03
2023-03-22T00:02:43.653Z,99691.53
2023-03-22T00:05:12.128Z,99700.25
2023-03-22T00:07:41.429Z,99692.38
2023-03-22T00:10:10.687Z,99687.16
2023-03-22T00:12:39.047Z,99692.38
2023-03-22T00:15:09.443Z,99701.09
2023-03-22T00:17:39.290Z,99701.09
2023-03-22T00:20:09.183Z,99703.69
2023-03-22T00:22:37.642Z,99699.38
2023-03-22T00:25:07.337Z,99695.84
2023-03-22T00:27:35.830Z,99684.50
2023-03-22T00:30:04.801Z,99687.16
2023-03-22T00:32:36.314Z,99681.91
2023-03-22T00:35:07.937Z,99675.78
2023-03-22T00:37:38.718Z,99674.88
2023-03-22T00:40:09.858Z,99675.75
2023-03-22T00:42:38.883Z,99668.78
2023-03-22T00:45:12.086Z,99661.78
2023-03-22T00:47:40.836Z,99660.88
2023-03-22T00:50:11.648Z,99656.50
2023-03-22T00:52:40.051Z,99662.59
2023-03-22T00:55:09.105Z,99640.69
2023-03-22T00:57:37.842Z,99640.69
2023-03-22T01:00:11.011Z,99638.00
2023-03-22T01:02:40.223Z,99645.84
2023-03-22T01:05:15.660Z,99634.41
2023-03-22T01:07:44.830Z,99637.00
2023-03-22T01:10:13.694Z,99643.09
2023-03-22T01:12:42.741Z,99630.81
2023-03-22T01:15:12.495Z,99636.88
2023-03-22T01:17:41.079Z,99628.09
2023-03-22T01:20:11.112Z,99631.53
2023-03-22T01:22:41.660Z,99626.31
2023-03-22T01:25:11.216Z,99628.88
2023-03-22T01:27:39.736Z,99621.91
2023-03-22T01:30:09.568Z,99609.63
2023-03-22T01:32:38.415Z,99618.38
2023-03-22T01:35:08.023Z,99613.94
2023-03-22T01:37:37.309Z,99611.25
2023-03-22T01:40:09.289Z,99604.22
2023-03-22T01:42:37.681Z,99606.81
2023-03-22T01:45:40.110Z,99596.28
2023-03-22T01:48:29.221Z,99589.22
2023-03-22T01:51:07.181Z,99595.28
2023-03-22T01:53:43.914Z,99587.34
2023-03-22T01:56:14.605Z,99589.91
2023-03-22T01:58:43.798Z,99579.41
2023-03-22T02:01:14.364Z,99574.94
2023-03-22T02:03:54.531Z,99567.06
2023-03-22T02:06:24.882Z,99566.13
2023-03-22T02:09:01.169Z,99570.41
2023-03-22T02:11:35.662Z,99572.09
2023-03-22T02:14:19.999Z,99572.00
2023-03-22T02:17:20.754Z,99559.75
2023-03-22T02:20:39.978Z,99559.69
2023-03-22T02:23:32.601Z,99552.66
2023-03-22T02:26:35.966Z,99551.72
2023-03-22T02:29:12.701Z,99549.06
2023-03-22T02:31:59.390Z,99545.53
2023-03-22T02:35:03.317Z,99542.03
2023-03-22T02:38:02.305Z,99537.63
2023-03-22T02:40:37.322Z,99533.22
2023-03-22T02:43:13.862Z,99533.22
2023-03-22T02:45:49.040Z,99524.47
2023-03-22T02:48:23.064Z,99518.34
2023-03-22T02:50:55.705Z,99518.31
2023-03-22T02:53:29.153Z,99518.28
2023-03-22T02:56:03.957Z,99517.38
2023-03-22T02:58:37.252Z,99520.84
2023-03-22T03:01:08.802Z,99511.19
2023-03-22T03:03:39.690Z,99511.19
2023-03-22T03:06:12.543Z,99512.03
2023-03-22T03:08:42.277Z,99519.00
2023-03-22T03:11:12.527Z,99517.19
2023-03-22T03:13:41.039Z,99504.97
2023-03-22T03:16:17.578Z,99510.19
2023-03-22T03:18:52.440Z,99509.31
2023-03-22T03:21:30.008Z,99503.16
2023-03-22T03:24:06.984Z,99516.19
2023-03-22T03:26:44.566Z,99506.59
2023-03-22T03:29:19.264Z,99502.19
2023-03-22T03:31:54.623Z,99505.63
2023-03-22T03:34:27.336Z,99502.16
2023-03-22T03:37:01.061Z,99502.09
2023-03-22T03:39:34.152Z,99504.75
2023-03-22T03:42:06.119Z,99495.13
2023-03-22T03:44:37.246Z,99483.75
2023-03-22T03:47:08.497Z,99488.97
2023-03-22T03:49:37.188Z,99487.22
2023-03-22T03:52:07.147Z,99483.69
2023-03-22T03:54:35.880Z,99488.88
2023-03-22T03:57:08.091Z,99487.13
2023-03-22T03:59:39.105Z,99488.00
2023-03-22T04:02:15.003Z,99486.25
2023-03-22T04:04:43.745Z,99492.31
2023-03-22T04:07:12.291Z,99487.97
2023-03-22T04:09:41.489Z,99495.81
2023-03-22T04:12:37.484Z,99497.50
2023-03-22T04:15:14.650Z,99499.22
2023-03-22T04:17:46.555Z,99498.31
2023-03-22T04:20:16.496Z,99499.19
2023-03-22T04:22:46.847Z,99493.91
2023-03-22T04:25:18.238Z,99498.25
2023-03-22T04:28:00.545Z,99488.63
2023-03-22T04:30:30.807Z,99497.34
2023-03-22T04:32:59.235Z,99497.28
2023-03-22T04:35:40.932Z,99492.06
2023-03-22T04:38:09.866Z,99492.06
2023-03-22T04:40:39.242Z,99482.44
2023-03-22T04:43:15.683Z,99485.03
2023-03-22T04:45:58.382Z,99477.16
2023-03-22T04:48:33.207Z,99471.06
2023-03-22T04:51:04.212Z,99472.75
2023-03-22T04:53:39.427Z,99467.50
2023-03-22T04:56:11.823Z,99470.13
2023-03-22T04:58:43.764Z,99473.56
2023-03-22T05:01:14.197Z,99477.91
2023-03-22T05:03:47.378Z,99477.88
2023-03-22T05:06:18.489Z,99483.97
2023-03-22T05:08:56.588Z,99483.09
2023-03-22T05:11:27.804Z,99473.47
2023-03-22T05:14:32.873Z,99483.09
2023-03-22T05:17:01.691Z,99478.75
2023-03-22T05:19:30.567Z,99470.03
2023-03-22T05:22:02.091Z,99473.56
2023-03-22T05:24:51.280Z,99478.84
2023-03-22T05:27:31.372Z,99482.31
2023-03-22T05:30:20.284Z,99481.50
2023-03-22T05:32:59.726Z,99472.81
2023-03-22T05:35:28.382Z,99476.34
2023-03-22T05:37:58.637Z,99485.97
2023-03-22T05:40:29.787Z,99479.91
2023-03-22T05:42:58.370Z,99475.56
2023-03-22T05:45:31.712Z,99474.78
2023-03-22T05:48:18.629Z,99474.84
2023-03-22T05:50:47.323Z,99474.03
2023-03-22T05:53:16.327Z,99469.72
2023-03-22T05:55:50.328Z,99468.94
2023-03-22T05:58:19.159Z,99470.72
2023-03-22T06:00:51.429Z,99469.03
2023-03-22T06:03:22.996Z,99467.34
2023-03-22T06:05:57.302Z,99464.78
2023-03-22T06:08:40.424Z,99465.69
2023-03-22T06:11:09.732Z,99466.66
2023-03-22T06:13:38.786Z,99461.47
2023-03-22T06:16:09.857Z,99464.13
2023-03-22T06:18:38.288Z,99474.69
2023-03-22T06:21:11.616Z,99479.09
2023-03-22T06:23:40.037Z,99478.25
2023-03-22T06:26:11.381Z,99476.56
2023-03-22T06:28:40.351Z,99482.72
2023-03-22T06:31:11.414Z,99489.69
2023-03-22T06:33:48.611Z,99493.22
2023-03-22T06:36:26.461Z,99489.75
2023-03-22T06:39:15.953Z,99482.81
2023-03-22T06:41:46.695Z,99472.34
2023-03-22T06:44:16.107Z,99473.25
2023-03-22T06:47:06.181Z,99470.72
2023-03-22T06:49:55.251Z,99474.22
2023-03-22T06:52:27.543Z,99463.78
2023-03-22T06:54:57.209Z,99463.84
2023-03-22T06:57:26.383Z,99467.38
2023-03-22T06:59:54.873Z,99463.06
2023-03-22T07:02:24.710Z,99462.22
2023-03-22T07:05:19.401Z,99462.28
2023-03-22T07:07:47.978Z,99450.13
2023-03-22T07:10:16.556Z,99455.41
2023-03-22T07:12:45.137Z,99450.22
2023-03-22T07:15:17.422Z,99454.63
2023-03-22T07:18:08.518Z,99444.22
2023-03-22T07:20:40.800Z,99439.03
2023-03-22T07:23:10.732Z,99438.25
2023-03-22T07:25:47.652Z,99433.09
2023-03-22T07:28:29.402Z,99443.66
2023-03-22T07:31:03.012Z,99454.22
2023-03-22T07:33:39.114Z,99436.00
2023-03-22T07:36:09.632Z,99442.19
2023-03-22T07:38:38.403Z,99439.66
2023-03-22T07:41:11.066Z,99436.28
2023-03-22T07:44:07.755Z,99434.59
2023-03-22T07:46:48.201Z,99433.81
2023-03-22T07:49:25.339Z,99431.28
2023-03-22T07:52:07.830Z,99433.06
2023-03-22T07:54:36.325Z,99432.25
2023-03-22T07:57:08.606Z,99435.78
2023-03-22T07:59:43.513Z,99437.56
2023-03-22T08:02:12.348Z,99444.59
2023-03-22T08:04:51.849Z,99434.13
2023-03-22T08:07:31.620Z,99447.28
2023-03-22T08:10:00.430Z,99443.81
2023-03-22T08:12:29.144Z,99442.97
2023-03-22T08:15:08.165Z,99445.59
2023-03-22T08:17:37.181Z,99454.38
2023-03-22T08:20:10.649Z,99449.16
2023-03-22T08:22:47.400Z,99450.97
2023-03-22T08:25:33.824Z,99471.09
2023-03-22T08:28:09.200Z,99452.75
2023-03-22T08:30:38.859Z,99455.41
2023-03-22T08:33:07.575Z,99458.91
2023-03-22T08:35:37.864Z,99455.44
2023-03-22T08:38:06.520Z,99464.19
2023-03-22T08:40:42.897Z,99458.94
2023-03-22T08:43:11.421Z,99446.72
2023-03-22T08:45:40.229Z,99459.00
2023-03-22T08:48:16.653Z,99459.84
2023-03-22T08:51:02.129Z,99462.53
2023-03-22T08:53:40.561Z,99467.81
2023-03-22T08:56:32.433Z,99451.22
2023-03-22T08:59:12.815Z,99445.09
2023-03-22T09:01:55.782Z,99448.63
2023-03-22T09:04:24.362Z,99436.41
2023-03-22T09:06:54.259Z,99451.34
2023-03-22T09:09:22.735Z,99447.84
2023-03-22T09:11:54.190Z,99448.78
2023-03-22T09:14:22.808Z,99437.47
2023-03-22T09:16:51.847Z,99446.19
2023-03-22T09:19:20.786Z,99439.22
2023-03-22T09:21:50.004Z,99438.41
2023-03-22T09:24:29.964Z,99448.94
2023-03-22T09:27:01.884Z,99435.81
2023-03-22T09:29:30.645Z,99447.19
2023-03-22T09:32:00.621Z,99441.09
2023-03-22T09:34:33.193Z,99443.78
2023-03-22T09:37:04.167Z,99439.50
2023-03-22T09:39:44.671Z,99431.69
2023-03-22T09:42:29.344Z,99430.84
2023-03-22T09:45:02.459Z,99438.75
2023-03-22T09:47:44.167Z,99448.41
2023-03-22T09:50:17.081Z,99436.13
2023-03-22T09:52:46.134Z,99434.34
2023-03-22T09:55:22.359Z,99441.34
2023-03-22T09:57:59.804Z,99436.09
2023-03-22T10:00:38.932Z,99438.72
2023-03-22T10:03:19.186Z,99429.09
2023-03-22T10:05:54.250Z,99436.09
2023-03-22T10:08:37.699Z,99424.75
2023-03-22T10:11:19.568Z,99423.91
2023-03-22T10:13:58.519Z,99438.81
2023-03-22T10:16:29.362Z,99420.47
2023-03-22T10:19:05.829Z,99424.91
2023-03-22T10:21:36.045Z,99414.41
2023-03-22T10:24:13.909Z,99408.31
2023-03-22T10:26:46.950Z,99410.97
2023-03-22T10:29:23.102Z,99404.88
2023-03-22T10:31:51.594Z,99415.41
2023-03-22T10:34:24.279Z,99418.94
2023-03-22T10:36:53.814Z,99413.69
2023-03-22T10:39:31.183Z,99418.97
2023-03-22T10:42:03.870Z,99411.09
2023-03-22T10:44:38.954Z,99420.75
2023-03-22T10:47:10.992Z,99415.53
2023-03-22T10:49:43.828Z,99414.72
2023-03-22T10:52:24.001Z,99414.69
2023-03-22T10:54:52.727Z,99412.97
2023-03-22T10:57:22.574Z,99419.09
2023-03-22T10:59:52.430Z,99419.94
2023-03-22T11:02:23.857Z,99428.72
2023-03-22T11:04:54.422Z,99421.72
2023-03-22T11:07:33.294Z,99416.47
2023-03-22T11:10:23.545Z,99411.19
2023-03-22T11:12:56.122Z,99416.47
2023-03-22T11:15:31.107Z,99412.97
2023-03-22T11:18:02.015Z,99411.19
2023-03-22T11:20:31.312Z,99412.09
2023-03-22T11:23:02.899Z,99409.44
2023-03-22T11:25:33.551Z,99403.31
2023-03-22T11:28:16.465Z,99417.31
2023-03-22T11:31:00.987Z,99413.81
2023-03-22T11:33:29.830Z,99415.56
2023-03-22T11:35:59.766Z,99411.13
2023-03-22T11:38:31.574Z,99414.59
2023-03-22T11:41:02.485Z,99407.59
2023-03-22T11:43:37.076Z,99407.56
2023-03-22T11:46:05.885Z,99402.31
2023-03-22T11:48:35.223Z,99406.66
2023-03-22T11:51:10.339Z,99402.31
2023-03-22T11:53:41.706Z,99421.56
2023-03-22T11:56:12.574Z,99410.19
2023-03-22T11:58:59.613Z,99394.44
2023-03-22T12:01:41.879Z,99390.06
2023-03-22T12:04:15.662Z,99395.34
2023-03-22T12:06:44.584Z,99372.56
2023-03-22T12:09:25.640Z,99390.97
2023-03-22T12:11:57.847Z,99390.97
2023-03-22T12:14:30.924Z,99386.59
2023-03-22T12:17:02.639Z,99385.72
2023-03-22T12:19:44.376Z,99371.69
2023-03-22T12:22:16.912Z,99378.75
2023-03-22T12:24:45.299Z,99373.47
2023-03-22T12:27:20.346Z,99366.47
2023-03-22T12:29:55.826Z,99370.88
2023-03-22T12:32:28.842Z,99377.88
2023-03-22T12:35:16.082Z,99384.91
2023-03-22T12:37:49.614Z,99373.50
2023-03-22T12:40:23.918Z,99378.72
2023-03-22T12:43:00.595Z,99386.59
2023-03-22T12:45:37.141Z,99379.56
2023-03-22T12:48:13.119Z,99384.81
2023-03-22T12:50:46.249Z,99380.44
2023-03-22T12:53:17.336Z,99383.94
2023-03-22T12:55:47.680Z,99383.91
2023-03-22T12:58:20.831Z,99383.06
2023-03-22T13:00:55.654Z,99387.41
2023-03-22T13:03:28.677Z,99388.28
2023-03-22T13:06:04.497Z,99393.50
2023-03-22T13:09:06.244Z,99389.09
2023-03-22T13:11:34.633Z,99384.72
2023-03-22T13:14:03.039Z,99386.47
2023-03-22T13:16:51.022Z,99389.09
2023-03-22T13:19:29.941Z,99384.69
2023-03-22T13:22:17.546Z,99378.59
2023-03-22T13:25:28.898Z,99382.06
2023-03-22T13:27:59.012Z,99378.56
2023-03-22T13:30:33.032Z,99377.69
2023-03-22T13:33:15.436Z,99373.31
2023-03-22T13:35:47.687Z,99375.06
2023-03-22T13:38:22.867Z,99375.97
2023-03-22T13:40:57.795Z,99374.19
2023-03-22T13:43:30.937Z,99370.72
2023-03-22T13:46:13.851Z,99373.34
2023-03-22T13:48:54.377Z,99365.47
2023-03-22T13:51:31.166Z,99364.59
2023-03-22T13:54:05.368Z,99365.47
2023-03-22T13:56:48.507Z,99365.53
2023-03-22T13:59:21.638Z,99361.16
2023-03-22T14:01:53.770Z,99353.28
2023-03-22T14:04:35.000Z,99357.66
2023-03-22T14:07:10.748Z,99360.28
2023-03-22T14:09:44.493Z,99355.03
2023-03-22T14:12:20.645Z,99347.16
2023-03-22T14:14:54.355Z,99345.44
2023-03-22T14:17:32.443Z,99339.34
2023-03-22T14:20:05.154Z,99341.09
